MSC Orchestra — 3EJF3 — position and weather

sailwx.info

Track history (hours):
 
Tides and Currents Weather Stations Pressure Air Temp Water Temp Dewpoint Dewpoint Depression Visibility Wind Speed Wind Dir Waves Ship Positions

MSC Orchestra

Last reported at 2015-May-28 22:11 UTC. Time now 2015-May-29 02:21 UTC.
Position N 58°03' E 005°50'.

Length 294 m; draft 7.6 m.

Type: Ship. MMSI: 372497000.

Date/timePositionNaut miles runAvg speedWind from/ knotsBaromVisibWave heightAir tempDewpointWater temp
2015-May-28 22:11N 58°03' E 005°50'913.7
2015-May-28 21:33N 58°09' E 005°38'1514.0
2015-May-28 20:31N 58°18' E 005°17'1414.1
2015-May-28 19:31N 58°30' E 005°03'1211.1
2015-May-28 18:23N 58°42' E 005°11'1113.7
2015-May-28 17:33N 58°50' E 005°27'1414.0
2015-May-28 16:33N 59°03' E 005°34'7 6.5
2015-May-28 15:32N 58°58' E 005°44'0 0.0
2015-May-28 14:32N 58°58' E 005°44'0 0.0
2015-May-28 13:31N 58°58' E 005°44'0 0.0
2015-May-28 12:31N 58°58' E 005°44'0 0.0
2015-May-28 11:33N 58°58' E 005°44'0 0.0
2015-May-28 10:33N 58°58' E 005°44'0 0.0
2015-May-28 09:32N 58°58' E 005°44'0 0.0
2015-May-28 08:32N 58°58' E 005°44'4 3.8
2015-May-28 07:33N 59°01' E 005°39'1211.6
2015-May-28 06:33N 59°03' E 005°17'1615.6
2015-May-28 05:33N 59°13' E 004°52'  
2015-May-24 19:33N 58°44' E 004°41'3819.2
2015-May-24 17:33N 58°17' E 005°32'1918.8
2015-May-24 16:33N 58°04' E 005°59'14317.9
2015-May-24 08:33N 57°49' E 010°27'1514.7
2015-May-24 07:33N 57°45' E 010°54'1716.8
2015-May-24 06:33N 57°33' E 011°16'1717.4
2015-May-24 05:33N 57°18' E 011°33'1818.1
2015-May-24 04:33N 57°01' E 011°44'1717.1
2015-May-24 03:33N 56°44' E 011°53'1918.7
2015-May-24 02:33N 56°28' E 011°36'1918.3
2015-May-24 01:31N 56°12' E 011°18'1817.8
2015-May-24 00:29N 55°56' E 010°60'6015.2
2015-May-23 20:31N 54°56' E 010°56'1615.4
2015-May-23 19:30N 54°41' E 010°53'1716.9
2015-May-23 18:31N 54°32' E 010°28'1313.1
2015-May-23 17:33N 54°24' E 010°12'4 4.2
2015-May-23 16:31N 54°20' E 010°09'0 0.0
2015-May-23 15:33N 54°20' E 010°09'0 0.0
2015-May-23 14:33N 54°20' E 010°09'0 0.0
2015-May-23 13:33N 54°20' E 010°09'0 0.0
2015-May-23 12:32N 54°20' E 010°09'0 0.0
2015-May-23 11:32N 54°20' E 010°09'0 0.0
2015-May-23 10:31N 54°20' E 010°09'0 0.0
2015-May-23 09:31N 54°20' E 010°09'0 0.0
2015-May-23 08:33N 54°20' E 010°09'0 0.0
2015-May-23 07:33N 54°20' E 010°09'0 0.0
2015-May-23 06:32N 54°20' E 010°09'0 0.0
2015-May-23 05:32N 54°20' E 010°09'6 6.6
2015-May-23 04:34N 54°26' E 010°13'1111.2
2015-May-23 03:33N 54°32' E 010°28'1211.6
2015-May-23 02:33N 54°35' E 010°48'1211.9
2015-May-23 01:32N 54°36' E 011°08'1111.3
2015-May-23 00:33N 54°32' E 011°26'1211.8
2015-May-22 23:33N 54°27' E 011°45'1211.5
2015-May-22 22:33N 54°26' E 012°05'1111.1
2015-May-22 21:33N 54°36' E 012°14'1413.7
2015-May-22 20:30N 54°44' E 012°34'5514.0
2015-May-22 16:33N 55°04' E 014°04'1414.0
2015-May-22 15:33N 55°15' E 014°20'1414.1
2015-May-22 14:33N 55°26' E 014°36'1414.1
2015-May-22 13:33N 55°33' E 014°57'1413.9
2015-May-22 12:33N 55°40' E 015°19'1414.1
2015-May-22 11:33N 55°47' E 015°40'11215.9
2015-May-22 04:30N 57°20' E 017°35'122 5.6
2015-May-21 06:32N 59°21' E 018°08'9511.8
2015-May-20 22:27N 59°33' E 021°13'2118.7
2015-May-20 21:20N 59°30' E 021°54'1418.2
2015-May-20 20:33N 59°28' E 022°22'2018.1
2015-May-20 19:26N 59°35' E 022°59'1618.3
2015-May-20 18:33N 59°40' E 023°30'1818.3
2015-May-20 17:33N 59°44' E 024°05'70 5.2
2015-May-20 04:07N 60°00' E 026°21'1017.9
2015-May-20 03:33N 60°01' E 026°41'1917.3
2015-May-20 02:28N 60°04' E 027°18'6616.9
2015-May-19 22:33N 60°01' E 029°31'1412.3
2015-May-19 21:27N 59°56' E 029°56'8 8.5
2015-May-19 20:33N 59°57' E 030°11'0 0.1
2015-May-19 19:32N 59°57' E 030°11'0 0.0
2015-May-19 18:32N 59°57' E 030°11'0 0.0
2015-May-19 17:32N 59°57' E 030°11'0 0.0
2015-May-19 16:32N 59°57' E 030°11'0 0.0
2015-May-19 15:31N 59°57' E 030°11'0 0.0
2015-May-19 14:31N 59°57' E 030°11'0 0.0
2015-May-19 13:33N 59°57' E 030°11'0 0.0
2015-May-19 12:33N 59°57' E 030°11'0 0.0
2015-May-19 11:32N 59°57' E 030°11'0 0.0
2015-May-19 10:32N 59°57' E 030°11'0 0.0
2015-May-19 09:32N 59°57' E 030°11'0 0.0
2015-May-19 08:31N 59°57' E 030°11'0 0.0
2015-May-19 07:28N 59°57' E 030°11'0 0.0
2015-May-19 06:33N 59°57' E 030°11'0 0.0
2015-May-19 05:30N 59°57' E 030°11'0 0.0
2015-May-19 04:32N 59°57' E 030°11'4 3.7
2015-May-19 03:33N 59°56' E 030°04'1010.4
2015-May-19 02:33N 59°59' E 029°44'  
Track history (hours):
 
Tides and Currents Weather Stations Pressure Air Temp Water Temp Dewpoint Dewpoint Depression Visibility Wind Speed Wind Dir Waves Ship Positions

MSC Orchestra

Last reported at 2015-May-28 22:11 UTC. Time now 2015-May-29 02:21 UTC.
Position N 58°03' E 005°50'.

Length 294 m; draft 7.6 m.

Type: Ship. MMSI: 372497000.

Date/timePositionNaut miles runAvg speedWind from/ knotsBaromVisibWave heightAir tempDewpointWater temp
2015-May-28 22:11N 58°03' E 005°50'913.7
2015-May-28 21:33N 58°09' E 005°38'1514.0
2015-May-28 20:31N 58°18' E 005°17'1414.1
2015-May-28 19:31N 58°30' E 005°03'1211.1
2015-May-28 18:23N 58°42' E 005°11'1113.7
2015-May-28 17:33N 58°50' E 005°27'1414.0
2015-May-28 16:33N 59°03' E 005°34'7 6.5
2015-May-28 15:32N 58°58' E 005°44'0 0.0
2015-May-28 14:32N 58°58' E 005°44'0 0.0
2015-May-28 13:31N 58°58' E 005°44'0 0.0
2015-May-28 12:31N 58°58' E 005°44'0 0.0
2015-May-28 11:33N 58°58' E 005°44'0 0.0
2015-May-28 10:33N 58°58' E 005°44'0 0.0
2015-May-28 09:32N 58°58' E 005°44'0 0.0
2015-May-28 08:32N 58°58' E 005°44'4 3.8
2015-May-28 07:33N 59°01' E 005°39'1211.6
2015-May-28 06:33N 59°03' E 005°17'1615.6
2015-May-28 05:33N 59°13' E 004°52'  
2015-May-24 19:33N 58°44' E 004°41'3819.2
2015-May-24 17:33N 58°17' E 005°32'1918.8
2015-May-24 16:33N 58°04' E 005°59'14317.9
2015-May-24 08:33N 57°49' E 010°27'1514.7
2015-May-24 07:33N 57°45' E 010°54'1716.8
2015-May-24 06:33N 57°33' E 011°16'1717.4
2015-May-24 05:33N 57°18' E 011°33'1818.1
2015-May-24 04:33N 57°01' E 011°44'1717.1
2015-May-24 03:33N 56°44' E 011°53'1918.7
2015-May-24 02:33N 56°28' E 011°36'1918.3
2015-May-24 01:31N 56°12' E 011°18'1817.8
2015-May-24 00:29N 55°56' E 010°60'6015.2
2015-May-23 20:31N 54°56' E 010°56'1615.4
2015-May-23 19:30N 54°41' E 010°53'1716.9
2015-May-23 18:31N 54°32' E 010°28'1313.1
2015-May-23 17:33N 54°24' E 010°12'4 4.2
2015-May-23 16:31N 54°20' E 010°09'0 0.0
2015-May-23 15:33N 54°20' E 010°09'0 0.0
2015-May-23 14:33N 54°20' E 010°09'0 0.0
2015-May-23 13:33N 54°20' E 010°09'0 0.0
2015-May-23 12:32N 54°20' E 010°09'0 0.0
2015-May-23 11:32N 54°20' E 010°09'0 0.0
2015-May-23 10:31N 54°20' E 010°09'0 0.0
2015-May-23 09:31N 54°20' E 010°09'0 0.0
2015-May-23 08:33N 54°20' E 010°09'0 0.0
2015-May-23 07:33N 54°20' E 010°09'0 0.0
2015-May-23 06:32N 54°20' E 010°09'0 0.0
2015-May-23 05:32N 54°20' E 010°09'6 6.6
2015-May-23 04:34N 54°26' E 010°13'1111.2
2015-May-23 03:33N 54°32' E 010°28'1211.6
2015-May-23 02:33N 54°35' E 010°48'1211.9
2015-May-23 01:32N 54°36' E 011°08'1111.3
2015-May-23 00:33N 54°32' E 011°26'1211.8
2015-May-22 23:33N 54°27' E 011°45'1211.5
2015-May-22 22:33N 54°26' E 012°05'1111.1
2015-May-22 21:33N 54°36' E 012°14'1413.7
2015-May-22 20:30N 54°44' E 012°34'5514.0
2015-May-22 16:33N 55°04' E 014°04'1414.0
2015-May-22 15:33N 55°15' E 014°20'1414.1
2015-May-22 14:33N 55°26' E 014°36'1414.1
2015-May-22 13:33N 55°33' E 014°57'1413.9
2015-May-22 12:33N 55°40' E 015°19'1414.1
2015-May-22 11:33N 55°47' E 015°40'11215.9
2015-May-22 04:30N 57°20' E 017°35'122 5.6
2015-May-21 06:32N 59°21' E 018°08'9511.8
2015-May-20 22:27N 59°33' E 021°13'2118.7
2015-May-20 21:20N 59°30' E 021°54'1418.2
2015-May-20 20:33N 59°28' E 022°22'2018.1
2015-May-20 19:26N 59°35' E 022°59'1618.3
2015-May-20 18:33N 59°40' E 023°30'1818.3
2015-May-20 17:33N 59°44' E 024°05'70 5.2
2015-May-20 04:07N 60°00' E 026°21'1017.9
2015-May-20 03:33N 60°01' E 026°41'1917.3
2015-May-20 02:28N 60°04' E 027°18'6616.9
2015-May-19 22:33N 60°01' E 029°31'1412.3
2015-May-19 21:27N 59°56' E 029°56'8 8.5
2015-May-19 20:33N 59°57' E 030°11'0 0.1
2015-May-19 19:32N 59°57' E 030°11'0 0.0
2015-May-19 18:32N 59°57' E 030°11'0 0.0
2015-May-19 17:32N 59°57' E 030°11'0 0.0
2015-May-19 16:32N 59°57' E 030°11'0 0.0
2015-May-19 15:31N 59°57' E 030°11'0 0.0
2015-May-19 14:31N 59°57' E 030°11'0 0.0
2015-May-19 13:33N 59°57' E 030°11'0 0.0
2015-May-19 12:33N 59°57' E 030°11'0 0.0
2015-May-19 11:32N 59°57' E 030°11'0 0.0
2015-May-19 10:32N 59°57' E 030°11'0 0.0
2015-May-19 09:32N 59°57' E 030°11'0 0.0
2015-May-19 08:31N 59°57' E 030°11'0 0.0
2015-May-19 07:28N 59°57' E 030°11'0 0.0
2015-May-19 06:33N 59°57' E 030°11'0 0.0
2015-May-19 05:30N 59°57' E 030°11'0 0.0
2015-May-19 04:32N 59°57' E 030°11'4 3.7
2015-May-19 03:33N 59°56' E 030°04'1010.4
2015-May-19 02:33N 59°59' E 029°44'  

Dump ship's entire track history